Terminal Aerodrome Forecast
Issued by NWS Spokane, WA

Home | Current Version | Previous Version | Text Only | Print | Product List | Glossary On
Versions: 1 2 3 4 5 6 7 8 9 10 11 12 13 14 15 16 17 18 19 20 21 22 23
000
FTUS46 KOTX 251745
TAFGEG
TAF
KGEG 251745Z 2518/2618 21022G31KT P6SM DRSN FEW010 BKN020 OVC060
     FM251900 23026G34KT P6SM VCSH SCT030 OVC060
      TEMPO 2521/2523 24028G38KT 1SM -SHSNPL BKN020
     FM260000 23019G25KT P6SM SCT015 BKN100
     FM260600 22011KT P6SM SCT150
     FM261600 21005KT P6SM SCT009=

USA.gov is the U.S. government's official web portal to all federal, state and local government web resources and services.